createdAt,value
2023-03-08T00:00:33.048Z,0.00
2023-03-08T00:01:33.052Z,0.00
2023-03-08T00:02:33.027Z,0.00
2023-03-08T00:03:33.072Z,0.00
2023-03-08T00:04:33.088Z,0.00
2023-03-08T00:05:32.988Z,0.00
2023-03-08T00:06:32.980Z,0.00
2023-03-08T00:07:33.001Z,0.00
2023-03-08T00:08:32.977Z,0.00
2023-03-08T00:09:32.972Z,0.00
2023-03-08T00:10:32.967Z,0.00
2023-03-08T00:11:32.935Z,0.00
2023-03-08T00:12:32.949Z,0.00
2023-03-08T00:13:32.907Z,0.00
2023-03-08T00:14:32.954Z,0.00
2023-03-08T00:15:32.885Z,0.00
2023-03-08T00:16:32.884Z,0.00
2023-03-08T00:17:32.881Z,0.00
2023-03-08T00:18:32.880Z,0.00
2023-03-08T00:19:32.865Z,0.00
2023-03-08T00:20:32.832Z,0.00
2023-03-08T00:21:32.833Z,0.00
2023-03-08T00:22:32.827Z,0.00
2023-03-08T00:23:32.801Z,0.00
2023-03-08T00:24:32.817Z,0.00
2023-03-08T00:25:32.778Z,0.00
2023-03-08T00:26:32.778Z,0.00
2023-03-08T00:27:32.776Z,0.00
2023-03-08T00:28:32.756Z,0.00
2023-03-08T00:29:32.737Z,0.00
2023-03-08T00:30:32.769Z,0.00
2023-03-08T00:31:32.765Z,0.00
2023-03-08T00:32:32.744Z,0.00
2023-03-08T00:33:32.690Z,0.00
2023-03-08T00:34:32.708Z,0.00
2023-03-08T00:35:32.728Z,0.00
2023-03-08T00:36:32.688Z,0.00
2023-03-08T00:37:32.661Z,0.00
2023-03-08T00:38:32.645Z,0.00
2023-03-08T00:39:32.628Z,0.00
2023-03-08T00:40:32.627Z,0.00
2023-03-08T00:41:32.631Z,0.00
2023-03-08T00:42:32.648Z,0.00
2023-03-08T00:43:32.590Z,0.00
2023-03-08T00:44:32.600Z,0.00
2023-03-08T00:45:32.572Z,0.00
2023-03-08T00:46:32.628Z,0.00
2023-03-08T00:47:32.551Z,0.00
2023-03-08T00:48:32.592Z,0.00
2023-03-08T00:49:32.540Z,0.00
2023-03-08T00:50:32.517Z,0.00
2023-03-08T00:51:32.536Z,0.00
2023-03-08T00:52:32.494Z,0.00
2023-03-08T00:53:32.492Z,0.00
2023-03-08T00:54:32.498Z,0.00
2023-03-08T00:55:32.464Z,0.00
2023-03-08T00:56:32.465Z,0.00
2023-03-08T00:57:32.453Z,0.00
2023-03-08T00:58:32.446Z,0.00
2023-03-08T00:59:32.424Z,0.00
2023-03-08T01:00:32.450Z,0.00
2023-03-08T01:01:32.413Z,0.00
2023-03-08T01:02:32.384Z,0.00
2023-03-08T01:03:32.371Z,0.00
2023-03-08T01:04:32.379Z,0.00
2023-03-08T01:05:32.351Z,0.00
2023-03-08T01:06:32.387Z,0.00
2023-03-08T01:07:32.350Z,0.00
2023-03-08T01:08:32.337Z,0.00
2023-03-08T01:09:32.310Z,0.00
2023-03-08T01:10:32.313Z,0.00
2023-03-08T01:11:32.288Z,0.00
2023-03-08T01:12:32.308Z,0.00
2023-03-08T01:13:32.265Z,0.00
2023-03-08T01:14:32.268Z,0.00
2023-03-08T01:15:32.268Z,0.00
2023-03-08T01:16:32.239Z,0.00
2023-03-08T01:17:32.217Z,0.00
2023-03-08T01:18:32.250Z,0.00
2023-03-08T01:19:32.198Z,0.00
2023-03-08T01:20:32.188Z,0.00
2023-03-08T01:21:32.208Z,0.00
2023-03-08T01:22:32.174Z,0.00
2023-03-08T01:23:32.231Z,0.00
2023-03-08T01:24:32.200Z,0.00
2023-03-08T01:25:32.133Z,0.00
2023-03-08T01:26:32.141Z,0.00
2023-03-08T01:27:32.135Z,0.00
2023-03-08T01:28:32.111Z,0.00
2023-03-08T01:29:32.101Z,0.00
2023-03-08T01:30:32.110Z,0.00
2023-03-08T01:31:32.084Z,0.00
2023-03-08T01:32:32.110Z,0.00
2023-03-08T01:33:32.059Z,0.00
2023-03-08T01:34:32.034Z,0.00
2023-03-08T01:35:32.053Z,0.00
2023-03-08T01:36:32.071Z,0.00
2023-03-08T01:37:32.002Z,0.00
2023-03-08T01:38:31.994Z,0.00
2023-03-08T01:39:32.018Z,0.00
2023-03-08T01:40:31.968Z,0.00
2023-03-08T01:41:31.976Z,0.00
2023-03-08T01:42:31.988Z,0.00
2023-03-08T01:43:31.944Z,0.00
2023-03-08T01:44:31.932Z,0.00
2023-03-08T01:45:31.934Z,0.00
2023-03-08T01:46:31.915Z,0.00
2023-03-08T01:47:31.894Z,0.00
2023-03-08T01:48:31.935Z,0.00
2023-03-08T01:49:31.874Z,0.00
2023-03-08T01:50:31.863Z,0.00
2023-03-08T01:51:31.849Z,0.00
2023-03-08T01:52:31.840Z,0.00
2023-03-08T01:53:31.851Z,0.00
2023-03-08T01:54:31.862Z,0.00
2023-03-08T01:55:31.830Z,0.00
2023-03-08T01:56:31.805Z,0.00
2023-03-08T01:57:31.802Z,0.00
2023-03-08T01:58:31.773Z,0.00
2023-03-08T01:59:31.776Z,0.00
2023-03-08T02:00:31.793Z,0.00
2023-03-08T02:01:31.752Z,0.00
2023-03-08T02:02:31.732Z,0.00
2023-03-08T02:03:31.722Z,0.00
2023-03-08T02:04:31.744Z,0.00
2023-03-08T02:05:31.694Z,0.00
2023-03-08T02:06:31.739Z,0.00
2023-03-08T02:07:31.677Z,0.00
2023-03-08T02:08:31.665Z,0.00
2023-03-08T02:09:31.647Z,0.00
2023-03-08T02:10:31.667Z,0.00
2023-03-08T02:11:31.660Z,0.00
2023-03-08T02:12:31.667Z,0.00
2023-03-08T02:13:31.609Z,0.00
2023-03-08T02:14:31.621Z,0.00
2023-03-08T02:15:31.591Z,0.00
2023-03-08T02:16:31.583Z,0.00
2023-03-08T02:17:31.572Z,0.00
2023-03-08T02:18:31.595Z,0.00
2023-03-08T02:19:31.559Z,0.00
2023-03-08T02:20:31.564Z,0.00
2023-03-08T02:21:31.538Z,0.00
2023-03-08T02:22:31.531Z,0.00
2023-03-08T02:23:31.518Z,0.00
2023-03-08T02:24:31.542Z,0.00
2023-03-08T02:25:31.488Z,0.00
2023-03-08T02:26:31.473Z,0.00
2023-03-08T02:27:31.487Z,0.00
2023-03-08T02:28:31.470Z,0.00
2023-03-08T02:29:31.447Z,0.00
2023-03-08T02:30:31.468Z,0.00
2023-03-08T02:31:31.419Z,0.00
2023-03-08T02:32:31.553Z,0.00
2023-03-08T02:33:31.402Z,0.00
2023-03-08T02:34:31.390Z,0.00
2023-03-08T02:35:31.375Z,0.00
2023-03-08T02:36:31.388Z,0.00
2023-03-08T02:37:31.375Z,0.00
2023-03-08T02:38:31.341Z,0.00
2023-03-08T02:39:31.339Z,0.00
2023-03-08T02:40:31.341Z,0.00
2023-03-08T02:41:31.316Z,0.00
2023-03-08T02:42:31.338Z,0.00
2023-03-08T02:43:31.334Z,0.00
2023-03-08T02:44:31.287Z,0.00
2023-03-08T02:45:31.271Z,0.00
2023-03-08T02:46:31.255Z,0.00
2023-03-08T02:47:31.246Z,0.00
2023-03-08T02:48:31.280Z,0.00
2023-03-08T02:49:31.241Z,0.00
2023-03-08T02:50:31.205Z,0.00
2023-03-08T02:51:31.219Z,0.00
2023-03-08T02:52:31.210Z,0.00
2023-03-08T02:53:31.184Z,0.00
2023-03-08T02:54:31.188Z,0.00
2023-03-08T02:55:31.170Z,0.00
2023-03-08T02:56:31.159Z,0.00
2023-03-08T02:57:31.149Z,0.00
2023-03-08T02:58:31.133Z,0.00
2023-03-08T02:59:31.131Z,0.00
2023-03-08T03:00:31.131Z,0.00
2023-03-08T03:01:31.114Z,0.00
2023-03-08T03:02:31.099Z,0.00
2023-03-08T03:03:31.090Z,0.00
2023-03-08T03:04:31.074Z,0.00
2023-03-08T03:05:31.047Z,0.00
2023-03-08T03:06:31.116Z,0.00
2023-03-08T03:07:31.048Z,0.00
2023-03-08T03:08:31.041Z,0.00
2023-03-08T03:09:31.007Z,0.00
2023-03-08T03:10:31.008Z,0.00
2023-03-08T03:11:30.984Z,0.00
2023-03-08T03:12:30.992Z,0.00
2023-03-08T03:13:30.961Z,0.00
2023-03-08T03:14:30.950Z,0.00
2023-03-08T03:15:31.011Z,0.00
2023-03-08T03:16:30.935Z,0.00
2023-03-08T03:17:30.958Z,0.00
2023-03-08T03:18:30.919Z,0.00
2023-03-08T03:19:30.890Z,0.00
2023-03-08T03:20:30.875Z,0.00
2023-03-08T03:21:30.864Z,0.00
2023-03-08T03:22:30.855Z,0.00
2023-03-08T03:23:30.861Z,0.00
2023-03-08T03:24:30.882Z,0.00
2023-03-08T03:25:30.822Z,0.00
2023-03-08T03:26:30.813Z,0.00
2023-03-08T03:27:30.804Z,0.00
2023-03-08T03:28:30.806Z,0.00
2023-03-08T03:29:30.802Z,0.00
2023-03-08T03:30:30.791Z,0.00
2023-03-08T03:31:30.809Z,0.00
2023-03-08T03:32:30.784Z,0.00
2023-03-08T03:33:30.739Z,0.00
2023-03-08T03:34:30.728Z,0.00
2023-03-08T03:35:30.750Z,0.00
2023-03-08T03:36:30.735Z,0.00
2023-03-08T03:37:30.689Z,0.00
2023-03-08T03:38:30.679Z,0.00
2023-03-08T03:39:30.685Z,0.00
2023-03-08T03:40:30.671Z,0.00
2023-03-08T03:41:30.647Z,0.00
2023-03-08T03:42:30.686Z,0.00
2023-03-08T03:43:30.625Z,0.00
2023-03-08T03:44:30.624Z,0.00
2023-03-08T03:45:30.603Z,0.00
2023-03-08T03:46:30.606Z,0.00
2023-03-08T03:47:30.630Z,0.00
2023-03-08T03:48:30.601Z,0.00
2023-03-08T03:49:30.579Z,0.00
2023-03-08T03:50:30.554Z,0.00
2023-03-08T03:51:30.556Z,0.00
2023-03-08T03:52:30.532Z,0.00
2023-03-08T03:53:30.520Z,0.00
2023-03-08T03:54:30.548Z,0.00
2023-03-08T03:55:30.502Z,0.00
2023-03-08T03:56:30.508Z,0.00
2023-03-08T03:57:30.481Z,0.00
2023-03-08T03:58:30.462Z,0.00
2023-03-08T03:59:30.487Z,0.00
2023-03-08T04:00:30.494Z,0.00
2023-03-08T04:01:30.434Z,0.00
2023-03-08T04:02:30.463Z,0.00
2023-03-08T04:03:30.461Z,0.00
2023-03-08T04:04:30.402Z,0.00
2023-03-08T04:05:30.425Z,0.00
2023-03-08T04:06:30.422Z,0.00
2023-03-08T04:07:30.375Z,0.00
2023-03-08T04:08:30.357Z,0.00
2023-03-08T04:09:30.363Z,0.00
2023-03-08T04:10:30.354Z,0.00
2023-03-08T04:11:30.364Z,0.00
2023-03-08T04:12:30.319Z,0.00
2023-03-08T04:13:30.331Z,0.00
2023-03-08T04:14:30.295Z,0.00
2023-03-08T04:15:30.291Z,0.00
2023-03-08T04:16:30.355Z,0.00
2023-03-08T04:17:30.294Z,0.00
2023-03-08T04:18:30.271Z,0.00
2023-03-08T04:19:30.266Z,0.00
2023-03-08T04:20:30.233Z,0.00
2023-03-08T04:21:30.237Z,0.00
2023-03-08T04:22:30.235Z,0.00
2023-03-08T04:23:30.226Z,0.00
2023-03-08T04:24:30.178Z,0.00
2023-03-08T04:25:30.176Z,0.00
2023-03-08T04:26:30.167Z,0.00
2023-03-08T04:27:30.151Z,0.00
2023-03-08T04:28:30.161Z,0.00
2023-03-08T04:29:30.171Z,0.00
2023-03-08T04:30:30.148Z,0.00
2023-03-08T04:31:30.220Z,0.00
2023-03-08T04:32:30.121Z,0.00
2023-03-08T04:33:30.091Z,0.00
2023-03-08T04:34:30.108Z,0.00
2023-03-08T04:35:30.220Z,0.00
2023-03-08T04:36:30.055Z,0.00
2023-03-08T04:37:30.048Z,0.00
2023-03-08T04:38:30.031Z,0.00
2023-03-08T04:39:30.031Z,0.00
2023-03-08T04:40:30.044Z,0.00
2023-03-08T04:41:30.039Z,0.00
2023-03-08T04:42:29.991Z,0.00
2023-03-08T04:43:29.975Z,0.00
2023-03-08T04:44:29.976Z,0.00
2023-03-08T04:45:29.963Z,0.00
2023-03-08T04:46:29.990Z,0.00
2023-03-08T04:47:29.976Z,0.00
2023-03-08T04:48:29.924Z,0.00
2023-03-08T04:49:29.917Z,0.00
2023-03-08T04:50:29.924Z,0.00
2023-03-08T04:51:29.919Z,0.00
2023-03-08T04:52:29.881Z,0.00
2023-03-08T04:53:29.900Z,0.00
2023-03-08T04:54:29.865Z,0.00
2023-03-08T04:55:29.864Z,0.00
2023-03-08T04:56:29.851Z,0.00
2023-03-08T04:57:29.826Z,0.00
2023-03-08T04:58:29.822Z,0.00
2023-03-08T04:59:29.854Z,0.00
2023-03-08T05:00:29.805Z,0.00
2023-03-08T05:01:29.785Z,0.00
2023-03-08T05:02:31.062Z,0.00
2023-03-08T05:03:29.765Z,0.00
2023-03-08T05:04:29.778Z,0.00
2023-03-08T05:05:29.765Z,0.00
2023-03-08T05:06:29.729Z,0.00
2023-03-08T05:07:29.744Z,0.00
2023-03-08T05:08:29.705Z,0.00
2023-03-08T05:09:29.700Z,0.00
2023-03-08T05:10:29.711Z,0.00
2023-03-08T05:11:29.732Z,0.00
2023-03-08T05:12:29.663Z,0.00
2023-03-08T05:13:29.663Z,0.00
2023-03-08T05:14:29.654Z,0.00
2023-03-08T05:15:29.634Z,0.00
2023-03-08T05:16:29.709Z,0.00
2023-03-08T05:17:29.642Z,0.00
2023-03-08T05:18:29.604Z,0.00
2023-03-08T05:19:29.599Z,0.00
2023-03-08T05:20:29.576Z,0.00
2023-03-08T05:21:29.600Z,0.00
2023-03-08T05:22:29.577Z,0.00
2023-03-08T05:23:29.580Z,0.00
2023-03-08T05:24:29.580Z,0.00
2023-03-08T05:25:29.529Z,0.00
2023-03-08T05:26:29.512Z,0.00
2023-03-08T05:27:29.522Z,0.00
2023-03-08T05:28:29.498Z,0.00
2023-03-08T05:29:29.487Z,0.00
2023-03-08T05:30:29.490Z,0.00
2023-03-08T05:31:29.562Z,0.00
2023-03-08T05:32:29.515Z,0.00
2023-03-08T05:33:29.441Z,0.00
2023-03-08T05:34:29.429Z,0.00
2023-03-08T05:35:29.422Z,0.00
2023-03-08T05:36:29.460Z,0.00
2023-03-08T05:37:29.392Z,0.00
2023-03-08T05:38:29.437Z,0.00
2023-03-08T05:39:29.396Z,0.00
2023-03-08T05:40:29.380Z,0.00
2023-03-08T05:41:29.387Z,0.00
2023-03-08T05:42:29.356Z,0.00
2023-03-08T05:43:29.333Z,0.00
2023-03-08T05:44:29.333Z,0.00
2023-03-08T05:45:29.492Z,0.00
2023-03-08T05:46:31.517Z,0.00
2023-03-08T05:47:29.313Z,0.00
2023-03-08T05:48:29.289Z,0.00
2023-03-08T05:49:29.288Z,0.00
2023-03-08T05:50:29.255Z,0.00
2023-03-08T05:51:29.248Z,0.00
2023-03-08T05:52:29.262Z,0.00
2023-03-08T05:53:29.225Z,0.00
2023-03-08T05:54:29.237Z,0.00
2023-03-08T05:55:29.228Z,0.00
2023-03-08T05:56:29.193Z,0.00
2023-03-08T05:57:29.183Z,0.00
2023-03-08T05:58:29.183Z,0.00
2023-03-08T05:59:29.162Z,0.00
2023-03-08T06:00:29.163Z,0.00
2023-03-08T06:01:29.158Z,0.00
2023-03-08T06:02:29.157Z,0.00
2023-03-08T06:03:29.170Z,0.00
2023-03-08T06:04:29.110Z,0.00
2023-03-08T06:05:29.099Z,0.00
2023-03-08T06:06:29.104Z,0.00
2023-03-08T06:07:29.071Z,0.00
2023-03-08T06:08:29.062Z,0.00
2023-03-08T06:09:29.048Z,0.00
2023-03-08T06:10:29.056Z,0.00
2023-03-08T06:11:29.067Z,0.00
2023-03-08T06:12:29.015Z,0.00
2023-03-08T06:13:29.008Z,0.00
2023-03-08T06:14:29.052Z,0.00
2023-03-08T06:15:28.990Z,0.00
2023-03-08T06:16:29.021Z,0.00
2023-03-08T06:17:28.966Z,0.00
2023-03-08T06:18:28.953Z,0.00
2023-03-08T06:19:28.952Z,0.00
2023-03-08T06:20:28.960Z,0.00
2023-03-08T06:21:28.925Z,0.00
2023-03-08T06:22:28.923Z,0.00
2023-03-08T06:23:28.898Z,0.00
2023-03-08T06:24:28.888Z,0.00
2023-03-08T06:25:28.904Z,0.00
2023-03-08T06:26:28.872Z,0.00
2023-03-08T06:27:28.992Z,0.00
2023-03-08T06:28:28.850Z,0.00
2023-03-08T06:29:28.851Z,0.00
2023-03-08T06:30:28.841Z,0.00
2023-03-08T06:31:28.844Z,0.00
2023-03-08T06:32:28.860Z,0.00
2023-03-08T06:33:28.808Z,0.00
2023-03-08T06:34:28.785Z,0.00
2023-03-08T06:35:28.808Z,0.00
2023-03-08T06:36:28.766Z,0.00
2023-03-08T06:37:28.779Z,0.00
2023-03-08T06:38:30.165Z,0.00
2023-03-08T06:39:28.738Z,0.00
2023-03-08T06:40:28.731Z,0.00
2023-03-08T06:41:28.728Z,0.00
2023-03-08T06:42:40.660Z,0.00
2023-03-08T06:43:29.715Z,0.00
2023-03-08T06:44:28.701Z,0.00
2023-03-08T06:45:28.674Z,0.00
2023-03-08T06:46:28.762Z,0.00
2023-03-08T06:47:28.656Z,0.00
2023-03-08T06:48:28.644Z,0.00
2023-03-08T06:49:28.649Z,0.00
2023-03-08T06:50:28.618Z,0.00
2023-03-08T06:51:28.709Z,0.00
2023-03-08T06:52:28.608Z,0.00
2023-03-08T06:53:28.580Z,0.00
2023-03-08T06:54:28.624Z,5.62
2023-03-08T06:55:28.562Z,5.62
2023-03-08T06:56:28.564Z,5.62
2023-03-08T06:57:28.560Z,5.62
2023-03-08T06:58:28.542Z,5.62
2023-03-08T06:59:28.605Z,5.62
2023-03-08T07:00:28.518Z,5.62
2023-03-08T07:01:28.540Z,5.62
2023-03-08T07:02:28.532Z,5.62
2023-03-08T07:03:28.498Z,5.62
2023-03-08T07:04:28.501Z,11.25
2023-03-08T07:05:28.502Z,11.25
2023-03-08T07:06:28.449Z,11.25
2023-03-08T07:07:28.475Z,16.88
2023-03-08T07:08:28.477Z,16.88
2023-03-08T07:09:28.426Z,16.88
2023-03-08T07:10:28.427Z,16.88
2023-03-08T07:11:28.513Z,16.88
2023-03-08T07:12:28.386Z,16.88
2023-03-08T07:13:28.371Z,16.88
2023-03-08T07:14:28.384Z,16.88
2023-03-08T07:15:28.527Z,16.88
2023-03-08T07:16:28.340Z,16.88
2023-03-08T07:17:28.380Z,22.50
2023-03-08T07:18:28.320Z,22.50
2023-03-08T07:19:28.330Z,28.12
2023-03-08T07:20:28.303Z,28.12
2023-03-08T07:21:28.276Z,28.12
2023-03-08T07:22:28.269Z,22.50
2023-03-08T07:23:28.274Z,22.50
2023-03-08T07:24:28.253Z,22.50
2023-03-08T07:25:28.252Z,22.50
2023-03-08T07:26:28.239Z,22.50
2023-03-08T07:27:28.208Z,22.50
2023-03-08T07:28:28.217Z,16.88
2023-03-08T07:29:28.198Z,16.88
2023-03-08T07:30:28.327Z,16.88
2023-03-08T07:31:28.201Z,16.88
2023-03-08T07:32:28.256Z,11.25
2023-03-08T07:33:28.145Z,11.25
2023-03-08T07:34:28.147Z,11.25
2023-03-08T07:35:28.157Z,11.25
2023-03-08T07:36:28.160Z,11.25
2023-03-08T07:37:28.120Z,5.62
2023-03-08T07:38:28.113Z,5.62
2023-03-08T07:39:28.080Z,5.62
2023-03-08T07:40:28.207Z,5.62
2023-03-08T07:41:28.071Z,5.62
2023-03-08T07:42:28.109Z,5.62
2023-03-08T07:43:28.063Z,5.62
2023-03-08T07:44:28.032Z,5.62
2023-03-08T07:45:28.017Z,5.62
2023-03-08T07:46:28.049Z,5.62
2023-03-08T07:47:28.017Z,5.62
2023-03-08T07:48:28.001Z,5.62
2023-03-08T07:49:28.018Z,5.62
2023-03-08T07:50:28.017Z,5.62
2023-03-08T07:51:27.951Z,5.62
2023-03-08T07:52:27.945Z,5.62
2023-03-08T07:53:27.927Z,5.62
2023-03-08T07:54:27.930Z,5.62
2023-03-08T07:55:27.945Z,5.62
2023-03-08T07:56:27.916Z,5.62
2023-03-08T07:57:27.930Z,5.62
2023-03-08T07:58:27.885Z,5.62
2023-03-08T07:59:27.878Z,5.62
2023-03-08T08:00:27.906Z,5.62
2023-03-08T08:01:27.909Z,5.62
2023-03-08T08:02:27.851Z,5.62
2023-03-08T08:03:27.987Z,11.25
2023-03-08T08:04:27.818Z,11.25
2023-03-08T08:05:27.851Z,11.25
2023-03-08T08:06:27.832Z,16.88
2023-03-08T08:07:27.784Z,16.88
2023-03-08T08:08:27.786Z,16.88
2023-03-08T08:09:27.775Z,22.50
2023-03-08T08:10:27.786Z,22.50
2023-03-08T08:11:27.739Z,22.50
2023-03-08T08:12:27.734Z,22.50
2023-03-08T08:13:27.719Z,22.50
2023-03-08T08:14:27.706Z,16.88
2023-03-08T08:15:27.688Z,22.50
2023-03-08T08:16:27.799Z,22.50
2023-03-08T08:17:27.670Z,22.50
2023-03-08T08:18:27.662Z,16.88
2023-03-08T08:19:27.738Z,16.88
2023-03-08T08:20:27.645Z,22.50
2023-03-08T08:21:27.698Z,22.50
2023-03-08T08:22:27.629Z,16.88
2023-03-08T08:23:27.617Z,16.88
2023-03-08T08:24:27.594Z,16.88
2023-03-08T08:25:27.582Z,11.25
2023-03-08T08:26:27.937Z,16.88
2023-03-08T08:27:27.574Z,16.88
2023-03-08T08:28:27.574Z,16.88
2023-03-08T08:29:27.564Z,16.88
2023-03-08T08:30:27.572Z,16.88
2023-03-08T08:31:27.551Z,16.88
2023-03-08T08:32:27.585Z,16.88
2023-03-08T08:33:27.515Z,16.88
2023-03-08T08:34:27.485Z,22.50
2023-03-08T08:35:42.171Z,16.88
2023-03-08T08:36:28.496Z,16.88
2023-03-08T08:37:27.451Z,16.88
2023-03-08T08:38:27.455Z,16.88
2023-03-08T08:39:27.428Z,16.88
2023-03-08T08:40:28.457Z,16.88
2023-03-08T08:41:27.418Z,16.88
2023-03-08T08:42:27.410Z,16.88
2023-03-08T08:43:27.394Z,22.50
2023-03-08T08:44:27.381Z,22.50
2023-03-08T08:45:27.419Z,22.50
2023-03-08T08:46:27.382Z,22.50
2023-03-08T08:47:27.351Z,22.50
2023-03-08T08:48:27.355Z,22.50
2023-03-08T08:49:27.346Z,22.50
2023-03-08T08:50:27.317Z,22.50
2023-03-08T08:51:27.328Z,28.12
2023-03-08T08:52:27.298Z,28.12
2023-03-08T08:53:27.308Z,28.12
2023-03-08T08:54:27.284Z,28.12
2023-03-08T08:55:27.332Z,22.50
2023-03-08T08:56:28.531Z,22.50
2023-03-08T08:57:27.273Z,22.50
2023-03-08T08:58:27.264Z,22.50
2023-03-08T08:59:27.241Z,22.50
2023-03-08T09:00:27.243Z,22.50
2023-03-08T09:01:27.263Z,22.50
2023-03-08T09:02:27.218Z,22.50
2023-03-08T09:03:27.237Z,28.12
2023-03-08T09:04:27.306Z,28.12
2023-03-08T09:05:27.236Z,28.12
2023-03-08T09:06:27.148Z,28.12
2023-03-08T09:07:27.249Z,33.75
2023-03-08T09:08:27.147Z,33.75
2023-03-08T09:09:27.150Z,33.75
2023-03-08T09:10:27.140Z,39.38
2023-03-08T09:11:27.121Z,33.75
2023-03-08T09:12:27.126Z,33.75
2023-03-08T09:13:27.128Z,33.75
2023-03-08T09:14:27.068Z,28.12
2023-03-08T09:17:05.944Z,28.12
2023-03-08T09:18:05.843Z,28.12
2023-03-08T09:19:05.790Z,28.12
2023-03-08T09:20:05.772Z,28.12
2023-03-08T09:21:05.747Z,28.12
2023-03-08T09:22:05.901Z,33.75
2023-03-08T09:23:05.828Z,33.75
2023-03-08T09:24:19.268Z,39.38
2023-03-08T09:25:14.804Z,39.38
2023-03-08T09:26:13.765Z,45.00
2023-03-08T09:27:20.622Z,45.00
2023-03-08T09:28:05.713Z,45.00
2023-03-08T09:29:05.786Z,45.00
2023-03-08T09:30:17.414Z,45.00
2023-03-08T09:32:40.541Z,45.00
2023-03-08T09:35:03.487Z,56.25
2023-03-08T09:36:10.903Z,50.62
2023-03-08T09:37:04.255Z,45.00
2023-03-08T09:38:02.353Z,45.00
2023-03-08T09:39:02.275Z,45.00
2023-03-08T09:40:02.331Z,39.38
2023-03-08T09:41:02.239Z,39.38
2023-03-08T09:42:10.302Z,39.38
2023-03-08T09:43:02.476Z,39.38
2023-03-08T09:44:02.587Z,39.38
2023-03-08T09:45:02.393Z,39.38
2023-03-08T09:46:02.376Z,39.38
2023-03-08T09:47:02.173Z,33.75
2023-03-08T09:48:02.382Z,39.38
2023-03-08T09:49:02.180Z,39.38
2023-03-08T09:50:02.301Z,39.38
2023-03-08T09:51:02.143Z,33.75
2023-03-08T09:52:02.182Z,39.38
2023-03-08T09:53:02.117Z,39.38
2023-03-08T09:54:02.102Z,39.38
2023-03-08T09:55:02.228Z,39.38
2023-03-08T09:56:02.135Z,39.38
2023-03-08T09:57:02.053Z,45.00
2023-03-08T09:58:02.123Z,45.00
2023-03-08T09:59:02.061Z,45.00
2023-03-08T10:00:02.039Z,39.38
2023-03-08T10:01:02.187Z,39.38
2023-03-08T10:02:02.000Z,39.38
2023-03-08T10:03:02.126Z,39.38
2023-03-08T10:04:02.131Z,39.38
2023-03-08T10:05:12.839Z,39.38
2023-03-08T10:06:02.976Z,39.38
2023-03-08T10:07:02.036Z,39.38
2023-03-08T10:08:01.940Z,39.38
2023-03-08T10:09:01.926Z,33.75
2023-03-08T10:10:01.925Z,33.75
2023-03-08T10:11:01.973Z,28.12
2023-03-08T10:12:01.968Z,28.12
2023-03-08T10:13:01.888Z,28.12
2023-03-08T10:14:01.911Z,28.12
2023-03-08T10:15:01.860Z,28.12
2023-03-08T10:16:01.877Z,33.75
2023-03-08T10:17:01.967Z,33.75
2023-03-08T10:18:01.964Z,33.75
2023-03-08T10:19:10.029Z,33.75
2023-03-08T10:20:01.966Z,33.75
2023-03-08T10:21:01.809Z,33.75
2023-03-08T10:22:01.837Z,33.75
2023-03-08T10:23:01.779Z,33.75
2023-03-08T10:24:01.786Z,33.75
2023-03-08T10:25:01.773Z,33.75
2023-03-08T10:26:01.816Z,33.75
2023-03-08T10:27:03.861Z,33.75
2023-03-08T10:28:01.753Z,33.75
2023-03-08T10:29:01.714Z,33.75
2023-03-08T10:30:01.712Z,33.75
2023-03-08T10:31:01.749Z,39.38
2023-03-08T10:32:01.707Z,39.38
2023-03-08T10:33:01.762Z,33.75
2023-03-08T10:34:01.684Z,33.75
2023-03-08T10:35:01.691Z,39.38
2023-03-08T10:36:01.656Z,45.00
2023-03-08T10:37:01.789Z,45.00
2023-03-08T10:38:01.629Z,50.62
2023-03-08T10:39:03.944Z,56.25
2023-03-08T10:40:01.635Z,56.25
2023-03-08T10:41:01.737Z,56.25
2023-03-08T10:42:01.596Z,56.25
2023-03-08T10:43:01.576Z,56.25
2023-03-08T10:44:01.543Z,50.62
2023-03-08T10:45:01.590Z,45.00
2023-03-08T10:46:01.615Z,45.00
2023-03-08T10:47:01.582Z,39.38
2023-03-08T10:48:01.569Z,33.75
2023-03-08T10:49:01.608Z,33.75
2023-03-08T10:50:01.516Z,33.75
2023-03-08T10:51:01.513Z,33.75
2023-03-08T10:52:01.542Z,33.75
2023-03-08T10:53:01.485Z,33.75
2023-03-08T10:54:01.436Z,33.75
2023-03-08T10:55:01.444Z,33.75
2023-03-08T10:56:01.551Z,33.75
2023-03-08T10:57:01.473Z,33.75
2023-03-08T10:58:01.421Z,33.75
2023-03-08T10:59:01.440Z,33.75
2023-03-08T11:00:01.422Z,33.75
2023-03-08T11:01:01.369Z,33.75
2023-03-08T11:02:01.364Z,33.75
2023-03-08T11:03:01.397Z,33.75
2023-03-08T11:04:01.460Z,33.75
2023-03-08T11:05:01.432Z,33.75
2023-03-08T11:06:01.359Z,39.38
2023-03-08T11:07:01.493Z,39.38
2023-03-08T11:08:01.373Z,39.38
2023-03-08T11:09:01.310Z,33.75
2023-03-08T11:10:01.252Z,33.75
2023-03-08T11:11:01.265Z,33.75
2023-03-08T11:12:01.301Z,39.38
2023-03-08T11:13:01.239Z,39.38
2023-03-08T11:14:01.238Z,39.38
2023-03-08T11:15:01.289Z,33.75
2023-03-08T11:16:01.274Z,39.38
2023-03-08T11:17:01.220Z,39.38
2023-03-08T11:18:01.275Z,39.38
2023-03-08T11:19:01.251Z,45.00
2023-03-08T11:20:01.951Z,50.62
2023-03-08T11:21:01.166Z,45.00
2023-03-08T11:22:01.178Z,45.00
2023-03-08T11:23:01.206Z,45.00
2023-03-08T11:24:01.169Z,45.00
2023-03-08T11:25:01.793Z,50.62
2023-03-08T11:26:10.227Z,45.00
2023-03-08T11:27:11.313Z,45.00
2023-03-08T11:28:01.324Z,50.62
2023-03-08T11:29:01.290Z,50.62
2023-03-08T11:30:01.050Z,45.00
2023-03-08T11:31:01.191Z,45.00
2023-03-08T11:32:01.091Z,45.00
2023-03-08T11:33:01.361Z,50.62
2023-03-08T11:34:01.279Z,56.25
2023-03-08T11:35:09.030Z,61.88
2023-03-08T11:36:01.141Z,56.25
2023-03-08T11:37:01.898Z,50.62
2023-03-08T11:38:01.258Z,50.62
2023-03-08T11:39:01.002Z,56.25
2023-03-08T11:40:00.996Z,50.62
2023-03-08T11:41:00.941Z,45.00
2023-03-08T11:42:00.922Z,56.25
2023-03-08T11:43:01.077Z,50.62
2023-03-08T11:44:00.901Z,61.88
2023-03-08T11:45:01.780Z,50.62
2023-03-08T11:46:00.932Z,50.62
2023-03-08T11:47:01.029Z,45.00
2023-03-08T11:48:00.842Z,39.38
2023-03-08T11:49:00.866Z,39.38
2023-03-08T11:50:00.842Z,45.00
2023-03-08T11:51:00.945Z,39.38
2023-03-08T11:52:00.878Z,39.38
2023-03-08T11:53:00.899Z,33.75
2023-03-08T11:54:00.804Z,33.75
2023-03-08T11:55:00.926Z,39.38
2023-03-08T11:56:00.798Z,45.00
2023-03-08T11:57:00.771Z,45.00
2023-03-08T11:58:00.830Z,39.38
2023-03-08T11:59:00.790Z,50.62
2023-03-08T12:00:00.818Z,50.62
2023-03-08T12:01:00.817Z,45.00
2023-03-08T12:02:00.731Z,39.38
2023-03-08T12:03:00.698Z,39.38
2023-03-08T12:04:03.233Z,39.38
2023-03-08T12:06:28.277Z,39.38
2023-03-08T12:07:19.121Z,39.38
2023-03-08T12:08:17.975Z,33.75
2023-03-08T12:09:18.015Z,39.38
2023-03-08T12:10:17.971Z,39.38
2023-03-08T12:11:17.890Z,39.38
2023-03-08T12:12:17.906Z,39.38
2023-03-08T12:13:17.891Z,39.38
2023-03-08T12:14:17.886Z,45.00
2023-03-08T12:15:17.907Z,39.38
2023-03-08T12:16:17.942Z,39.38
2023-03-08T12:17:17.863Z,45.00
2023-03-08T12:18:17.850Z,50.62
2023-03-08T12:19:17.857Z,39.38
2023-03-08T12:20:17.777Z,39.38
2023-03-08T12:21:17.937Z,56.25
2023-03-08T12:22:17.854Z,56.25
2023-03-08T12:23:17.755Z,50.62
2023-03-08T12:24:17.843Z,56.25
2023-03-08T12:25:17.766Z,56.25
2023-03-08T12:26:17.884Z,39.38
2023-03-08T12:27:17.706Z,33.75
2023-03-08T12:28:17.756Z,33.75
2023-03-08T12:29:17.768Z,33.75
2023-03-08T12:30:17.692Z,33.75
2023-03-08T12:31:26.957Z,33.75
2023-03-08T12:32:18.937Z,28.12
2023-03-08T12:33:17.950Z,28.12
2023-03-08T12:34:17.715Z,22.50
2023-03-08T12:35:17.659Z,22.50
2023-03-08T12:36:17.733Z,28.12
2023-03-08T12:37:17.707Z,28.12
2023-03-08T12:38:17.686Z,28.12
2023-03-08T12:39:17.623Z,28.12
2023-03-08T12:40:17.587Z,22.50
2023-03-08T12:41:17.662Z,16.88
2023-03-08T12:42:17.573Z,16.88
2023-03-08T12:43:17.568Z,22.50
2023-03-08T12:44:17.564Z,16.88
2023-03-08T12:45:17.521Z,11.25
2023-03-08T12:46:17.578Z,11.25
2023-03-08T12:47:17.589Z,11.25
2023-03-08T12:48:17.593Z,11.25
2023-03-08T12:49:17.551Z,11.25
2023-03-08T12:50:17.795Z,11.25
2023-03-08T12:51:17.608Z,11.25
2023-03-08T12:52:17.523Z,11.25
2023-03-08T12:53:17.534Z,11.25
2023-03-08T12:54:17.562Z,16.88
2023-03-08T12:55:17.451Z,16.88
2023-03-08T12:56:17.563Z,22.50
2023-03-08T12:57:17.390Z,22.50
2023-03-08T12:58:17.576Z,22.50
2023-03-08T12:59:17.369Z,16.88
2023-03-08T13:00:17.370Z,11.25
2023-03-08T13:01:17.401Z,11.25
2023-03-08T13:02:17.453Z,16.88
2023-03-08T13:03:17.707Z,11.25
2023-03-08T13:04:19.845Z,11.25
2023-03-08T13:05:18.347Z,11.25
2023-03-08T13:06:17.450Z,11.25
2023-03-08T13:07:17.362Z,11.25
2023-03-08T13:08:17.891Z,11.25
2023-03-08T13:09:17.272Z,16.88
2023-03-08T13:10:17.272Z,16.88
2023-03-08T13:11:17.255Z,11.25
2023-03-08T13:12:17.277Z,11.25
2023-03-08T13:13:35.273Z,11.25